Avion

Aérodrome de Reims-Prunay Aérodrome de Reims-Prunay ,Prunay

Afin de partager au maximum la passion de l’aviation avec vous, nous organisons des weekends pleins d’activités aéronautiques. Prenez place dans un vrai avion de chasse piloté par un ancien pilote militaire. Partager des moments uniques et vivez la vraie expérience de pilote de chasse grâce à notre équipe aussi diligente qu’expérimentée.

Avion / Hélicoptère / Simulateur*

Aérodrome de Reims-Prunay Aérodrome de Reims-Prunay ,Prunay

Afin de partager au maximum la passion de l’aviation avec vous, nous organisons des weekends pleins d’activités aéronautiques. Prenez place dans un vrai avion de chasse piloté par un ancien pilote militaire pendant que vos proches se font un plaisir en hélicoptère ou en simulateur*. Partager des moments uniques et vivez la vraie expérience de …

METAR :

LFQA 122000Z AUTO 11004KT CAVOK 21/09 Q1014


vue en direct sur l'aérodrome
facturation mentions légales politique de confidentialité
Cochet Concept
cx